createdAt,value
2017-09-15T00:00:44.827Z,1004.9
2017-09-15T00:01:45.467Z,1004.9
2017-09-15T00:02:46.110Z,1004.8
2017-09-15T00:03:47.000Z,1004.9
2017-09-15T00:04:47.643Z,1004.9
2017-09-15T00:05:48.284Z,1004.9
2017-09-15T00:06:48.924Z,1004.9
2017-09-15T00:07:49.565Z,1005.0
2017-09-15T00:08:50.207Z,1004.9
2017-09-15T00:09:50.847Z,1004.9
2017-09-15T00:10:51.487Z,1004.9
2017-09-15T00:11:52.134Z,1004.9
2017-09-15T00:12:52.769Z,1004.9
2017-09-15T00:13:53.413Z,1005.0
2017-09-15T00:14:54.091Z,1005.0
2017-09-15T00:15:54.696Z,1005.0
2017-09-15T00:16:55.337Z,1004.9
2017-09-15T00:17:55.979Z,1005.0
2017-09-15T00:18:56.622Z,1004.9
2017-09-15T00:19:57.264Z,1005.0
2017-09-15T00:20:57.906Z,1005.0
2017-09-15T00:21:58.549Z,1005.0
2017-09-15T00:22:59.190Z,1005.0
2017-09-15T00:23:59.833Z,1005.1
2017-09-15T00:25:00.475Z,1005.0
2017-09-15T00:26:01.117Z,1005.1
2017-09-15T00:27:01.759Z,1005.1
2017-09-15T00:28:02.402Z,1005.1
2017-09-15T00:29:03.045Z,1005.1
2017-09-15T00:30:03.689Z,1005.1
2017-09-15T00:31:04.329Z,1005.1
2017-09-15T00:32:04.973Z,1005.1
2017-09-15T00:33:05.613Z,1005.1
2017-09-15T00:34:06.406Z,1005.1
2017-09-15T00:35:07.048Z,1005.1
2017-09-15T00:36:07.689Z,1005.1
2017-09-15T00:37:08.332Z,1005.1
2017-09-15T00:38:08.973Z,1005.1
2017-09-15T00:39:09.617Z,1005.1
2017-09-15T00:40:10.262Z,1005.1
2017-09-15T00:41:10.908Z,1005.1
2017-09-15T00:42:11.543Z,1005.0
2017-09-15T00:43:12.188Z,1005.0
2017-09-15T00:44:12.828Z,1005.1
2017-09-15T00:45:13.472Z,1005.1
2017-09-15T00:46:14.118Z,1005.1
2017-09-15T00:47:14.766Z,1005.1
2017-09-15T00:48:15.403Z,1005.1
2017-09-15T00:49:16.146Z,1005.1
2017-09-15T00:50:16.788Z,1005.1
2017-09-15T00:51:17.429Z,1005.1
2017-09-15T00:52:18.085Z,1005.1
2017-09-15T00:53:18.723Z,1005.1
2017-09-15T00:54:19.366Z,1005.1
2017-09-15T00:55:20.008Z,1005.1
2017-09-15T00:56:20.650Z,1005.2
2017-09-15T00:57:21.291Z,1005.2
2017-09-15T00:58:21.934Z,1005.2
2017-09-15T00:59:22.574Z,1005.2
2017-09-15T01:00:23.217Z,1005.2
2017-09-15T01:01:23.857Z,1005.2
2017-09-15T01:02:24.499Z,1005.2
2017-09-15T01:03:25.139Z,1005.2
2017-09-15T01:04:26.032Z,1005.2
2017-09-15T01:05:26.673Z,1005.2
2017-09-15T01:06:27.314Z,1005.2
2017-09-15T01:07:27.954Z,1005.2
2017-09-15T01:08:28.595Z,1005.3
2017-09-15T01:09:29.236Z,1005.3
2017-09-15T01:10:29.875Z,1005.3
2017-09-15T01:11:30.518Z,1005.3
2017-09-15T01:12:31.159Z,1005.3
2017-09-15T01:13:31.803Z,1005.3
2017-09-15T01:14:32.444Z,1005.3
2017-09-15T01:15:33.088Z,1005.3
2017-09-15T01:16:33.729Z,1005.3
2017-09-15T01:17:34.371Z,1005.3
2017-09-15T01:18:35.012Z,1005.3
2017-09-15T01:19:35.655Z,1005.4
2017-09-15T01:20:36.297Z,1005.4
2017-09-15T01:21:36.951Z,1005.4
2017-09-15T01:22:37.582Z,1005.4
2017-09-15T01:23:38.224Z,1005.4
2017-09-15T01:24:38.868Z,1005.4
2017-09-15T01:25:39.510Z,1005.4
2017-09-15T01:26:40.151Z,1005.4
2017-09-15T01:27:40.792Z,1005.4
2017-09-15T01:28:41.433Z,1005.4
2017-09-15T01:29:42.076Z,1005.4
2017-09-15T01:30:42.716Z,1005.4
2017-09-15T01:31:43.359Z,1005.4
2017-09-15T01:32:44.001Z,1005.4
2017-09-15T01:33:44.645Z,1005.4
2017-09-15T01:34:45.436Z,1005.4
2017-09-15T01:35:46.078Z,1005.4
2017-09-15T01:36:46.723Z,1005.5
2017-09-15T01:37:47.362Z,1005.4
2017-09-15T01:38:48.005Z,1005.5
2017-09-15T01:39:48.646Z,1005.4
2017-09-15T01:40:49.289Z,1005.4
2017-09-15T01:41:49.931Z,1005.5
2017-09-15T01:42:50.574Z,1005.4
2017-09-15T01:43:51.216Z,1005.4
2017-09-15T01:44:51.867Z,1005.5
2017-09-15T01:45:52.500Z,1005.4
2017-09-15T01:46:53.142Z,1005.5
2017-09-15T01:47:53.784Z,1005.5
2017-09-15T01:48:54.427Z,1005.5
2017-09-15T01:49:55.167Z,1005.5
2017-09-15T01:50:55.808Z,1005.5
2017-09-15T01:51:56.448Z,1005.4
2017-09-15T01:52:57.090Z,1005.5
2017-09-15T01:53:57.730Z,1005.4
2017-09-15T01:54:58.373Z,1005.4
2017-09-15T01:55:59.012Z,1005.5
2017-09-15T01:56:59.657Z,1005.5
2017-09-15T01:58:00.297Z,1005.5
2017-09-15T01:59:00.939Z,1005.5
2017-09-15T02:00:01.581Z,1005.5
2017-09-15T02:01:02.224Z,1005.5
2017-09-15T02:02:02.866Z,1005.5
2017-09-15T02:03:03.515Z,1005.5
2017-09-15T02:04:04.154Z,1005.5
2017-09-15T02:05:04.898Z,1005.4
2017-09-15T02:06:05.541Z,1005.5
2017-09-15T02:07:06.189Z,1005.4
2017-09-15T02:08:06.831Z,1005.5
2017-09-15T02:09:07.473Z,1005.4
2017-09-15T02:10:08.115Z,1005.5
2017-09-15T02:11:08.756Z,1005.4
2017-09-15T02:12:09.442Z,1005.4
2017-09-15T02:13:10.082Z,1005.4
2017-09-15T02:14:10.724Z,1005.4
2017-09-15T02:15:11.366Z,1005.4
2017-09-15T02:16:12.008Z,1005.4
2017-09-15T02:17:12.650Z,1005.4
2017-09-15T02:18:13.293Z,1005.4
2017-09-15T02:19:13.934Z,1005.4
2017-09-15T02:20:14.828Z,1005.4
2017-09-15T02:21:15.469Z,1005.4
2017-09-15T02:22:16.114Z,1005.4
2017-09-15T02:23:16.760Z,1005.4
2017-09-15T02:24:17.401Z,1005.4
2017-09-15T02:25:18.045Z,1005.4
2017-09-15T02:26:18.686Z,1005.4
2017-09-15T02:27:19.331Z,1005.4
2017-09-15T02:28:19.969Z,1005.5
2017-09-15T02:29:20.612Z,1005.5
2017-09-15T02:30:21.255Z,1005.5
2017-09-15T02:31:21.895Z,1005.5
2017-09-15T02:32:22.536Z,1005.5
2017-09-15T02:33:23.178Z,1005.4
2017-09-15T02:34:23.821Z,1005.5
2017-09-15T02:35:24.712Z,1005.5
2017-09-15T02:36:25.352Z,1005.4
2017-09-15T02:37:25.992Z,1005.5
2017-09-15T02:38:26.633Z,1005.5
2017-09-15T02:39:27.276Z,1005.6
2017-09-15T02:40:27.915Z,1005.6
2017-09-15T02:41:28.560Z,1005.6
2017-09-15T02:42:29.199Z,1005.6
2017-09-15T02:43:29.842Z,1005.6
2017-09-15T02:44:30.483Z,1005.6
2017-09-15T02:45:31.140Z,1005.7
2017-09-15T02:46:31.765Z,1005.7
2017-09-15T02:47:32.408Z,1005.7
2017-09-15T02:48:33.054Z,1005.7
2017-09-15T02:49:33.694Z,1005.6
2017-09-15T02:50:34.585Z,1005.7
2017-09-15T02:51:35.233Z,1005.7
2017-09-15T02:52:35.869Z,1005.7
2017-09-15T02:53:36.525Z,1005.6
2017-09-15T02:54:37.167Z,1005.7
2017-09-15T02:55:37.807Z,1005.7
2017-09-15T02:56:38.447Z,1005.7
2017-09-15T02:57:39.090Z,1005.7
2017-09-15T02:58:39.732Z,1005.7
2017-09-15T02:59:40.375Z,1005.6
2017-09-15T03:00:41.016Z,1005.6
2017-09-15T03:01:41.658Z,1005.6
2017-09-15T03:02:42.299Z,1005.7
2017-09-15T03:03:42.940Z,1005.7
2017-09-15T03:04:43.582Z,1005.7
2017-09-15T03:05:44.526Z,1005.7
2017-09-15T03:06:45.167Z,1005.7
2017-09-15T03:07:45.809Z,1005.7
2017-09-15T03:08:46.449Z,1005.7
2017-09-15T03:09:47.092Z,1005.7
2017-09-15T03:10:47.738Z,1005.7
2017-09-15T03:11:48.375Z,1005.7
2017-09-15T03:12:49.017Z,1005.7
2017-09-15T03:13:49.658Z,1005.6
2017-09-15T03:14:50.302Z,1005.7
2017-09-15T03:15:50.943Z,1005.7
2017-09-15T03:16:51.614Z,1005.6
2017-09-15T03:17:52.227Z,1005.6
2017-09-15T03:18:52.868Z,1005.6
2017-09-15T03:19:53.511Z,1005.6
2017-09-15T03:20:54.153Z,1005.6
2017-09-15T03:21:54.795Z,1005.6
2017-09-15T03:22:55.437Z,1005.6
2017-09-15T03:23:56.082Z,1005.6
2017-09-15T03:24:56.725Z,1005.6
2017-09-15T03:25:57.365Z,1005.6
2017-09-15T03:26:58.007Z,1005.6
2017-09-15T03:27:58.650Z,1005.6
2017-09-15T03:28:59.291Z,1005.6
2017-09-15T03:29:59.934Z,1005.6
2017-09-15T03:31:00.577Z,1005.6
2017-09-15T03:32:01.219Z,1005.5
2017-09-15T03:33:01.859Z,1005.5
2017-09-15T03:34:02.504Z,1005.5
2017-09-15T03:35:03.145Z,1005.5
2017-09-15T03:36:04.037Z,1005.6
2017-09-15T03:37:04.678Z,1005.5
2017-09-15T03:38:05.318Z,1005.5
2017-09-15T03:39:05.960Z,1005.5
2017-09-15T03:40:06.600Z,1005.5
2017-09-15T03:41:07.241Z,1005.5
2017-09-15T03:42:07.882Z,1005.5
2017-09-15T03:43:08.523Z,1005.4
2017-09-15T03:44:09.165Z,1005.5
2017-09-15T03:45:09.806Z,1005.5
2017-09-15T03:46:10.447Z,1005.4
2017-09-15T03:47:11.090Z,1005.5
2017-09-15T03:48:11.730Z,1005.5
2017-09-15T03:49:12.374Z,1005.5
2017-09-15T03:50:13.016Z,1005.4
2017-09-15T03:51:13.758Z,1005.4
2017-09-15T03:52:14.433Z,1005.5
2017-09-15T03:53:15.076Z,1005.5
2017-09-15T03:54:15.716Z,1005.5
2017-09-15T03:55:16.358Z,1005.5
2017-09-15T03:56:16.998Z,1005.6
2017-09-15T03:57:17.641Z,1005.5
2017-09-15T03:58:18.281Z,1005.5
2017-09-15T03:59:18.925Z,1005.6
2017-09-15T04:00:19.565Z,1005.6
2017-09-15T04:01:20.207Z,1005.6
2017-09-15T04:02:20.848Z,1005.6
2017-09-15T04:03:21.491Z,1005.6
2017-09-15T04:04:22.133Z,1005.6
2017-09-15T04:05:22.776Z,1005.6
2017-09-15T04:06:23.566Z,1005.6
2017-09-15T04:07:24.218Z,1005.6
2017-09-15T04:08:24.852Z,1005.7
2017-09-15T04:09:25.493Z,1005.6
2017-09-15T04:10:26.136Z,1005.6
2017-09-15T04:11:26.776Z,1005.6
2017-09-15T04:12:27.420Z,1005.6
2017-09-15T04:13:28.062Z,1005.6
2017-09-15T04:14:28.704Z,1005.6
2017-09-15T04:15:29.344Z,1005.5
2017-09-15T04:16:29.987Z,1005.5
2017-09-15T04:17:30.629Z,1005.6
2017-09-15T04:18:31.272Z,1005.6
2017-09-15T04:19:31.913Z,1005.6
2017-09-15T04:20:32.556Z,1005.6
2017-09-15T04:21:33.447Z,1005.7
2017-09-15T04:22:34.090Z,1005.7
2017-09-15T04:23:34.732Z,1005.7
2017-09-15T04:24:35.375Z,1005.7
2017-09-15T04:25:36.016Z,1005.7
2017-09-15T04:26:36.659Z,1005.7
2017-09-15T04:27:37.301Z,1005.7
2017-09-15T04:28:37.943Z,1005.7
2017-09-15T04:29:38.585Z,1005.6
2017-09-15T04:30:39.227Z,1005.7
2017-09-15T04:31:39.869Z,1005.7
2017-09-15T04:32:40.509Z,1005.8
2017-09-15T04:33:41.150Z,1005.8
2017-09-15T04:34:41.790Z,1005.7
2017-09-15T04:35:42.430Z,1005.8
2017-09-15T04:36:43.325Z,1005.8
2017-09-15T04:37:43.961Z,1005.8
2017-09-15T04:38:44.605Z,1005.7
2017-09-15T04:39:45.247Z,1005.8
2017-09-15T04:40:45.890Z,1005.8
2017-09-15T04:41:46.532Z,1005.8
2017-09-15T04:42:47.173Z,1005.8
2017-09-15T04:43:47.816Z,1005.8
2017-09-15T04:44:48.457Z,1005.7
2017-09-15T04:45:49.101Z,1005.8
2017-09-15T04:46:49.741Z,1005.8
2017-09-15T04:47:50.385Z,1005.8
2017-09-15T04:48:51.027Z,1005.8
2017-09-15T04:49:51.670Z,1005.8
2017-09-15T04:50:52.310Z,1005.8
2017-09-15T04:51:53.053Z,1005.8
2017-09-15T04:52:53.692Z,1005.9
2017-09-15T04:53:54.336Z,1005.8
2017-09-15T04:54:54.972Z,1005.8
2017-09-15T04:55:55.614Z,1005.8
2017-09-15T04:56:56.255Z,1005.7
2017-09-15T04:57:56.895Z,1005.8
2017-09-15T04:58:57.535Z,1005.8
2017-09-15T04:59:58.178Z,1005.8
2017-09-15T05:00:58.818Z,1005.7
2017-09-15T05:01:59.459Z,1005.7
2017-09-15T05:03:00.101Z,1005.7
2017-09-15T05:04:00.744Z,1005.7
2017-09-15T05:05:01.386Z,1005.7
2017-09-15T05:06:02.029Z,1005.7
2017-09-15T05:07:02.920Z,1005.8
2017-09-15T05:08:03.561Z,1005.7
2017-09-15T05:09:04.204Z,1005.8
2017-09-15T05:10:04.841Z,1005.7
2017-09-15T05:11:05.482Z,1005.7
2017-09-15T05:12:06.240Z,1005.8
2017-09-15T05:13:06.885Z,1005.8
2017-09-15T05:14:07.524Z,1005.8
2017-09-15T05:15:08.166Z,1005.7
2017-09-15T05:16:08.807Z,1005.7
2017-09-15T05:17:09.447Z,1005.7
2017-09-15T05:18:10.087Z,1005.7
2017-09-15T05:19:10.732Z,1005.7
2017-09-15T05:20:11.369Z,1005.7
2017-09-15T05:21:12.022Z,1005.6
2017-09-15T05:22:12.901Z,1005.6
2017-09-15T05:23:13.544Z,1005.7
2017-09-15T05:24:14.186Z,1005.7
2017-09-15T05:25:14.826Z,1005.7
2017-09-15T05:26:15.469Z,1005.6
2017-09-15T05:27:16.110Z,1005.6
2017-09-15T05:28:16.754Z,1005.7
2017-09-15T05:29:17.394Z,1005.7
2017-09-15T05:30:18.036Z,1005.7
2017-09-15T05:31:18.681Z,1005.6
2017-09-15T05:32:19.328Z,1005.6
2017-09-15T05:33:19.969Z,1005.6
2017-09-15T05:34:20.611Z,1005.6
2017-09-15T05:35:21.352Z,1005.6
2017-09-15T05:36:21.994Z,1005.6
2017-09-15T05:37:22.635Z,1005.6
2017-09-15T05:38:23.277Z,1005.6
2017-09-15T05:39:23.920Z,1005.6
2017-09-15T05:40:24.562Z,1005.5
2017-09-15T05:41:25.205Z,1005.5
2017-09-15T05:42:25.846Z,1005.6
2017-09-15T05:43:26.489Z,1005.5
2017-09-15T05:44:27.130Z,1005.5
2017-09-15T05:45:27.772Z,1005.5
2017-09-15T05:46:28.413Z,1005.6
2017-09-15T05:47:29.055Z,1005.6
2017-09-15T05:48:29.698Z,1005.5
2017-09-15T05:49:30.339Z,1005.6
2017-09-15T05:50:31.229Z,1005.6
2017-09-15T05:51:31.870Z,1005.6
2017-09-15T05:52:32.512Z,1005.5
2017-09-15T05:53:33.151Z,1005.5
2017-09-15T05:54:33.795Z,1005.5
2017-09-15T05:55:34.433Z,1005.5
2017-09-15T05:56:35.076Z,1005.5
2017-09-15T05:57:35.716Z,1005.5
2017-09-15T05:58:36.358Z,1005.5
2017-09-15T05:59:36.999Z,1005.4
2017-09-15T06:00:37.641Z,1005.4
2017-09-15T06:01:38.284Z,1005.5
2017-09-15T06:02:38.926Z,1005.5
2017-09-15T06:03:39.566Z,1005.4
2017-09-15T06:04:40.208Z,1005.5
2017-09-15T06:05:40.999Z,1005.5
2017-09-15T06:06:41.640Z,1005.4
2017-09-15T06:07:42.282Z,1005.4
2017-09-15T06:08:42.928Z,1005.4
2017-09-15T06:09:43.567Z,1005.5
2017-09-15T06:10:44.208Z,1005.5
2017-09-15T06:11:44.851Z,1005.5
2017-09-15T06:12:45.492Z,1005.5
2017-09-15T06:13:46.134Z,1005.4
2017-09-15T06:14:46.776Z,1005.4
2017-09-15T06:15:47.419Z,1005.4
2017-09-15T06:16:48.060Z,1005.4
2017-09-15T06:17:48.702Z,1005.5
2017-09-15T06:18:49.343Z,1005.4
2017-09-15T06:19:49.984Z,1005.4
2017-09-15T06:20:50.877Z,1005.4
2017-09-15T06:21:51.517Z,1005.4
2017-09-15T06:22:52.159Z,1005.4
2017-09-15T06:23:53.251Z,1005.4
2017-09-15T06:24:53.893Z,1005.4
2017-09-15T06:25:54.535Z,1005.4
2017-09-15T06:26:55.175Z,1005.4
2017-09-15T06:27:55.815Z,1005.4
2017-09-15T06:28:56.456Z,1005.3
2017-09-15T06:29:57.099Z,1005.4
2017-09-15T06:30:57.739Z,1005.3
2017-09-15T06:31:58.381Z,1005.3
2017-09-15T06:32:59.022Z,1005.3
2017-09-15T06:33:59.665Z,1005.3
2017-09-15T06:35:00.858Z,1005.3
2017-09-15T06:36:01.500Z,1005.4
2017-09-15T06:37:02.141Z,1005.4
2017-09-15T06:38:03.038Z,1005.3
2017-09-15T06:39:03.777Z,1005.3
2017-09-15T06:40:04.417Z,1005.3
2017-09-15T06:41:05.209Z,1005.3
2017-09-15T06:42:06.050Z,1005.3
2017-09-15T06:43:06.852Z,1005.3
2017-09-15T06:44:07.491Z,1005.3
2017-09-15T06:45:08.136Z,1005.4
2017-09-15T06:46:09.031Z,1005.4
2017-09-15T06:47:09.670Z,1005.4
2017-09-15T06:48:10.314Z,1005.4
2017-09-15T06:49:11.056Z,1005.3
2017-09-15T06:50:11.700Z,1005.4
2017-09-15T06:51:12.343Z,1005.4
2017-09-15T06:52:12.986Z,1005.4
2017-09-15T06:53:13.630Z,1005.4
2017-09-15T06:54:14.272Z,1005.4
2017-09-15T06:55:15.167Z,1005.4
2017-09-15T06:56:15.808Z,1005.4
2017-09-15T06:57:16.449Z,1005.4
2017-09-15T06:58:17.092Z,1005.4
2017-09-15T06:59:17.734Z,1005.4
2017-09-15T07:00:18.526Z,1005.4
2017-09-15T07:01:19.369Z,1005.4
2017-09-15T07:02:20.026Z,1005.4
2017-09-15T07:03:20.655Z,1005.4
2017-09-15T07:04:21.297Z,1005.4
2017-09-15T07:05:21.940Z,1005.4
2017-09-15T07:06:22.582Z,1005.4
2017-09-15T07:07:23.425Z,1005.4
2017-09-15T07:08:24.068Z,1005.4
2017-09-15T07:09:24.711Z,1005.4
2017-09-15T07:10:25.452Z,1005.4
2017-09-15T07:11:26.098Z,1005.4
2017-09-15T07:12:26.837Z,1005.4
2017-09-15T07:13:27.481Z,1005.4
2017-09-15T07:14:28.125Z,1005.4
2017-09-15T07:15:28.767Z,1005.5
2017-09-15T07:16:29.410Z,1005.4
2017-09-15T07:17:30.052Z,1005.5
2017-09-15T07:18:30.697Z,1005.5
2017-09-15T07:19:31.338Z,1005.5
2017-09-15T07:20:31.982Z,1005.5
2017-09-15T07:21:32.623Z,1005.5
2017-09-15T07:22:33.267Z,1005.6
2017-09-15T07:23:33.910Z,1005.5
2017-09-15T07:24:34.553Z,1005.6
2017-09-15T07:25:35.196Z,1005.6
2017-09-15T07:26:35.839Z,1005.5
2017-09-15T07:27:36.480Z,1005.5
2017-09-15T07:28:37.124Z,1005.5
2017-09-15T07:29:37.804Z,1005.6
2017-09-15T07:30:38.760Z,1005.6
2017-09-15T07:31:39.503Z,1005.6
2017-09-15T07:32:40.143Z,1005.6
2017-09-15T07:33:40.786Z,1005.6
2017-09-15T07:34:41.728Z,1005.6
2017-09-15T07:35:42.372Z,1005.5
2017-09-15T07:36:43.013Z,1005.6
2017-09-15T07:37:43.656Z,1005.6
2017-09-15T07:38:44.398Z,1005.6
2017-09-15T07:39:45.041Z,1005.7
2017-09-15T07:40:45.684Z,1005.7
2017-09-15T07:41:46.477Z,1005.8
2017-09-15T07:42:47.118Z,1005.7
2017-09-15T07:43:47.861Z,1005.7
2017-09-15T07:44:48.505Z,1005.8
2017-09-15T07:45:49.148Z,1005.8
2017-09-15T07:46:49.796Z,1005.8
2017-09-15T07:47:50.440Z,1005.8
2017-09-15T07:48:51.333Z,1005.8
2017-09-15T07:49:51.976Z,1005.8
2017-09-15T07:50:52.620Z,1005.9
2017-09-15T07:51:53.263Z,1005.9
2017-09-15T07:52:53.906Z,1005.9
2017-09-15T07:53:54.547Z,1005.9
2017-09-15T07:54:55.191Z,1005.9
2017-09-15T07:55:56.083Z,1005.9
2017-09-15T07:56:56.727Z,1005.9
2017-09-15T07:57:57.369Z,1005.9
2017-09-15T07:58:58.013Z,1005.9
2017-09-15T07:59:58.755Z,1005.9
2017-09-15T08:00:59.647Z,1005.9
2017-09-15T08:02:00.300Z,1006.0
2017-09-15T08:03:00.931Z,1006.0
2017-09-15T08:04:01.675Z,1006.0
2017-09-15T08:05:02.318Z,1006.0
2017-09-15T08:06:02.962Z,1006.0
2017-09-15T08:07:03.602Z,1006.0
2017-09-15T08:08:04.346Z,1006.0
2017-09-15T08:09:04.991Z,1006.0
2017-09-15T08:10:05.639Z,1006.0
2017-09-15T08:11:06.284Z,1006.0
2017-09-15T08:12:07.025Z,1006.0
2017-09-15T08:13:07.668Z,1006.0
2017-09-15T08:14:08.315Z,1006.0
2017-09-15T08:15:08.963Z,1006.0
2017-09-15T08:16:09.706Z,1006.0
2017-09-15T08:17:10.450Z,1006.0
2017-09-15T08:18:11.094Z,1006.1
2017-09-15T08:19:11.737Z,1006.0
2017-09-15T08:20:12.531Z,1006.1
2017-09-15T08:21:13.175Z,1006.0
2017-09-15T08:22:13.820Z,1006.1
2017-09-15T08:23:14.461Z,1006.1
2017-09-15T08:24:15.102Z,1006.1
2017-09-15T08:25:15.745Z,1006.1
2017-09-15T08:26:16.386Z,1006.1
2017-09-15T08:27:17.029Z,1006.1
2017-09-15T08:28:17.670Z,1006.1
2017-09-15T08:29:18.313Z,1006.1
2017-09-15T08:30:18.954Z,1006.1
2017-09-15T08:31:19.697Z,1006.2
2017-09-15T08:32:20.341Z,1006.1
2017-09-15T08:33:20.989Z,1006.1
2017-09-15T08:34:21.631Z,1006.1
2017-09-15T08:35:22.373Z,1006.1
2017-09-15T08:36:23.014Z,1006.1
2017-09-15T08:37:23.659Z,1006.0
2017-09-15T08:38:24.299Z,1006.0
2017-09-15T08:39:25.042Z,1006.0
2017-09-15T08:40:25.686Z,1006.1
2017-09-15T08:41:26.428Z,1006.1
2017-09-15T08:42:27.069Z,1006.0
2017-09-15T08:43:27.709Z,1006.0
2017-09-15T08:44:28.349Z,1006.0
2017-09-15T08:45:28.990Z,1006.0
2017-09-15T08:46:29.632Z,1006.0
2017-09-15T08:47:30.272Z,1006.0
2017-09-15T08:48:30.916Z,1006.0
2017-09-15T08:49:31.557Z,1006.0
2017-09-15T08:50:32.199Z,1005.9
2017-09-15T08:51:32.839Z,1006.0
2017-09-15T08:52:33.483Z,1006.0
2017-09-15T08:53:34.127Z,1006.0
2017-09-15T08:54:34.766Z,1005.9
2017-09-15T08:55:35.407Z,1005.9
2017-09-15T08:56:36.156Z,1005.9
2017-09-15T08:57:36.794Z,1005.9
2017-09-15T08:58:37.436Z,1005.9
2017-09-15T08:59:38.080Z,1005.9
2017-09-15T09:00:38.821Z,1005.8
2017-09-15T09:01:39.565Z,1005.9
2017-09-15T09:02:40.206Z,1005.8
2017-09-15T09:03:41.898Z,1005.8
2017-09-15T09:04:42.538Z,1005.8
2017-09-15T09:05:43.380Z,1005.8
2017-09-15T09:06:44.022Z,1005.8
2017-09-15T09:07:44.668Z,1005.8
2017-09-15T09:08:45.310Z,1005.8
2017-09-15T09:09:45.953Z,1005.8
2017-09-15T09:10:46.600Z,1005.8
2017-09-15T09:11:47.238Z,1005.8
2017-09-15T09:12:47.979Z,1005.8
2017-09-15T09:13:48.724Z,1005.8
2017-09-15T09:14:49.368Z,1005.8
2017-09-15T09:15:50.006Z,1005.7
2017-09-15T09:16:50.648Z,1005.7
2017-09-15T09:17:51.290Z,1005.7
2017-09-15T09:18:51.931Z,1005.7
2017-09-15T09:19:52.574Z,1005.7
2017-09-15T09:20:53.315Z,1005.7
2017-09-15T09:21:53.957Z,1005.7
2017-09-15T09:22:54.601Z,1005.7
2017-09-15T09:23:55.244Z,1005.7
2017-09-15T09:24:55.886Z,1005.7
2017-09-15T09:25:56.530Z,1005.6
2017-09-15T09:26:57.171Z,1005.6
2017-09-15T09:27:57.813Z,1005.6
2017-09-15T09:28:58.456Z,1005.6
2017-09-15T09:29:59.097Z,1005.6
2017-09-15T09:30:59.889Z,1005.7
2017-09-15T09:32:00.530Z,1005.6
2017-09-15T09:33:01.173Z,1005.6
2017-09-15T09:34:01.813Z,1005.5
2017-09-15T09:35:02.556Z,1005.6
2017-09-15T09:36:03.200Z,1005.6
2017-09-15T09:37:04.197Z,1005.5
2017-09-15T09:38:04.839Z,1005.5
2017-09-15T09:39:05.580Z,1005.5
2017-09-15T09:40:06.222Z,1005.5
2017-09-15T09:41:06.864Z,1005.4
2017-09-15T09:42:07.655Z,1005.5
2017-09-15T09:43:08.295Z,1005.5
2017-09-15T09:44:08.936Z,1005.4
2017-09-15T09:45:09.828Z,1005.5
2017-09-15T09:46:10.470Z,1005.5
2017-09-15T09:47:11.118Z,1005.5
2017-09-15T09:48:11.859Z,1005.7
2017-09-15T09:49:12.603Z,1005.5
2017-09-15T09:50:13.245Z,1005.5
2017-09-15T09:51:13.886Z,1005.5
2017-09-15T09:52:14.609Z,1005.5
2017-09-15T09:53:15.250Z,1005.5
2017-09-15T09:54:15.991Z,1005.6
2017-09-15T09:55:16.632Z,1005.5
2017-09-15T09:56:17.274Z,1005.5
2017-09-15T09:57:17.915Z,1005.6
2017-09-15T09:58:18.556Z,1005.6
2017-09-15T09:59:19.397Z,1005.6
2017-09-15T10:00:20.137Z,1005.6
2017-09-15T10:01:20.879Z,1005.6
2017-09-15T10:02:21.623Z,1005.6
2017-09-15T10:03:22.470Z,1005.6
2017-09-15T10:04:23.112Z,1005.6
2017-09-15T10:05:23.754Z,1005.5
2017-09-15T10:06:24.395Z,1005.5
2017-09-15T10:07:25.036Z,1005.5
2017-09-15T10:08:25.827Z,1005.5
2017-09-15T10:09:26.469Z,1005.5
2017-09-15T10:10:27.111Z,1005.5
2017-09-15T10:11:27.752Z,1005.5
2017-09-15T10:12:28.495Z,1005.6
2017-09-15T10:13:29.239Z,1005.5
2017-09-15T10:14:29.881Z,1005.5
2017-09-15T10:15:30.522Z,1005.6
2017-09-15T10:16:31.163Z,1005.5
2017-09-15T10:17:31.804Z,1005.5
2017-09-15T10:18:32.446Z,1005.5
2017-09-15T10:19:33.090Z,1005.5
2017-09-15T10:20:33.830Z,1005.5
2017-09-15T10:21:34.472Z,1005.4
2017-09-15T10:22:35.118Z,1005.4
2017-09-15T10:23:35.760Z,1005.5
2017-09-15T10:24:36.402Z,1005.5
2017-09-15T10:25:37.044Z,1005.4
2017-09-15T10:26:37.687Z,1005.5
2017-09-15T10:27:38.340Z,1005.4
2017-09-15T10:28:38.986Z,1005.4
2017-09-15T10:29:39.626Z,1005.4
2017-09-15T10:30:40.819Z,1005.4
2017-09-15T10:31:41.459Z,1005.5
2017-09-15T10:32:42.201Z,1005.4
2017-09-15T10:33:42.846Z,1005.4
2017-09-15T10:34:44.189Z,1005.4
2017-09-15T10:35:44.833Z,1005.4
2017-09-15T10:36:45.727Z,1005.4
2017-09-15T10:37:46.570Z,1005.4
2017-09-15T10:38:47.563Z,1005.4
2017-09-15T10:39:48.206Z,1005.3
2017-09-15T10:40:49.155Z,1005.4
2017-09-15T10:41:49.799Z,1005.4
2017-09-15T10:42:50.442Z,1005.3
2017-09-15T10:43:51.183Z,1005.3
2017-09-15T10:44:51.827Z,1005.3
2017-09-15T10:45:52.620Z,1005.3
2017-09-15T10:46:53.264Z,1005.3
2017-09-15T10:47:53.907Z,1005.3
2017-09-15T10:48:54.551Z,1005.3
2017-09-15T10:49:55.193Z,1005.3
2017-09-15T10:50:55.837Z,1005.3
2017-09-15T10:51:56.731Z,1005.2
2017-09-15T10:52:57.407Z,1005.2
2017-09-15T10:53:58.017Z,1005.3
2017-09-15T10:54:58.660Z,1005.2
2017-09-15T10:55:59.303Z,1005.3
2017-09-15T10:57:00.048Z,1005.2
2017-09-15T10:58:00.690Z,1005.2
2017-09-15T10:59:01.538Z,1005.2
2017-09-15T11:00:02.436Z,1005.2
2017-09-15T11:01:03.180Z,1005.2
2017-09-15T11:02:03.824Z,1005.2
2017-09-15T11:03:04.567Z,1005.2
2017-09-15T11:04:05.212Z,1005.2
2017-09-15T11:05:05.854Z,1005.2
2017-09-15T11:06:06.498Z,1005.2
2017-09-15T11:07:07.141Z,1005.2
2017-09-15T11:08:07.785Z,1005.2
2017-09-15T11:09:08.430Z,1005.2
2017-09-15T11:10:09.073Z,1005.2
2017-09-15T11:11:09.717Z,1005.2
2017-09-15T11:12:10.448Z,1005.2
2017-09-15T11:13:11.090Z,1005.2
2017-09-15T11:14:11.733Z,1005.3
2017-09-15T11:15:12.478Z,1005.3
2017-09-15T11:16:13.122Z,1005.3
2017-09-15T11:17:13.916Z,1005.3
2017-09-15T11:18:14.557Z,1005.2
2017-09-15T11:19:15.201Z,1005.2
2017-09-15T11:20:15.943Z,1005.2
2017-09-15T11:21:16.839Z,1005.2
2017-09-15T11:22:17.480Z,1005.3
2017-09-15T11:23:18.121Z,1005.3
2017-09-15T11:24:18.763Z,1005.2
2017-09-15T11:25:19.406Z,1005.3
2017-09-15T11:26:20.298Z,1005.3
2017-09-15T11:27:21.142Z,1005.3
2017-09-15T11:28:21.784Z,1005.3
2017-09-15T11:29:22.425Z,1005.2
2017-09-15T11:30:23.066Z,1005.2
2017-09-15T11:31:23.708Z,1005.2
2017-09-15T11:32:24.352Z,1005.3
2017-09-15T11:33:24.993Z,1005.2
2017-09-15T11:34:25.642Z,1005.2
2017-09-15T11:35:26.278Z,1005.1
2017-09-15T11:36:26.922Z,1005.2
2017-09-15T11:37:27.814Z,1005.1
2017-09-15T11:38:28.458Z,1005.1
2017-09-15T11:39:29.101Z,1005.1
2017-09-15T11:40:29.846Z,1005.1
2017-09-15T11:41:31.038Z,1005.1
2017-09-15T11:42:31.680Z,1005.1
2017-09-15T11:43:32.322Z,1005.1
2017-09-15T11:44:32.965Z,1005.1
2017-09-15T11:45:33.606Z,1005.1
2017-09-15T11:46:34.249Z,1005.1
2017-09-15T11:47:34.892Z,1005.1
2017-09-15T11:48:35.887Z,1005.1
2017-09-15T11:49:36.529Z,1005.1
2017-09-15T11:50:37.170Z,1005.0
2017-09-15T11:51:37.815Z,1005.0
2017-09-15T11:52:38.557Z,1005.0
2017-09-15T11:53:39.308Z,1005.0
2017-09-15T11:54:39.951Z,1005.1
2017-09-15T11:55:40.593Z,1005.0
2017-09-15T11:56:41.237Z,1005.0
2017-09-15T11:57:41.880Z,1005.0
2017-09-15T11:58:42.525Z,1005.0
2017-09-15T11:59:43.166Z,1004.9
2017-09-15T12:00:43.910Z,1004.9
2017-09-15T12:01:44.555Z,1005.0
2017-09-15T12:02:45.345Z,1005.0
2017-09-15T12:03:45.988Z,1004.9
2017-09-15T12:04:46.630Z,1005.0
2017-09-15T12:05:47.272Z,1004.9
2017-09-15T12:06:47.915Z,1005.0
2017-09-15T12:07:48.564Z,1005.0
2017-09-15T12:08:49.202Z,1005.0
2017-09-15T12:09:49.845Z,1004.9
2017-09-15T12:10:50.488Z,1005.0
2017-09-15T12:11:51.481Z,1005.0
2017-09-15T12:12:52.124Z,1005.0
2017-09-15T12:13:52.767Z,1005.0
2017-09-15T12:14:54.010Z,1005.0
2017-09-15T12:15:54.657Z,1005.0
2017-09-15T12:16:55.299Z,1005.0
2017-09-15T12:17:56.093Z,1004.9
2017-09-15T12:18:56.737Z,1005.0
2017-09-15T12:19:57.381Z,1004.9
2017-09-15T12:20:58.126Z,1005.0
2017-09-15T12:21:58.770Z,1005.0
2017-09-15T12:22:59.419Z,1005.0
2017-09-15T12:24:00.157Z,1005.0
2017-09-15T12:25:00.800Z,1005.0
2017-09-15T12:26:01.444Z,1005.0
2017-09-15T12:27:02.089Z,1005.0
2017-09-15T12:28:02.736Z,1005.0
2017-09-15T12:29:03.380Z,1005.0
2017-09-15T12:30:04.024Z,1005.0
2017-09-15T12:31:04.818Z,1005.0
2017-09-15T12:32:05.467Z,1004.9
2017-09-15T12:33:06.110Z,1005.0
2017-09-15T12:34:06.755Z,1005.0
2017-09-15T12:35:07.399Z,1004.9
2017-09-15T12:36:08.045Z,1004.9
2017-09-15T12:37:08.784Z,1004.9